createdAt,value
2023-04-19T00:00:38.562Z,15.02
2023-04-19T00:03:06.789Z,14.23
2023-04-19T00:05:33.834Z,14.98
2023-04-19T00:08:00.624Z,14.45
2023-04-19T00:10:27.587Z,16.30
2023-04-19T00:12:54.395Z,14.68
2023-04-19T00:15:21.128Z,14.82
2023-04-19T00:17:47.899Z,15.15
2023-04-19T00:20:14.745Z,13.93
2023-04-19T00:22:41.826Z,15.70
2023-04-19T00:25:11.643Z,14.10
2023-04-19T00:27:38.427Z,13.25
2023-04-19T00:30:05.793Z,15.77
2023-04-19T00:32:32.596Z,13.55
2023-04-19T00:34:59.437Z,14.35
2023-04-19T00:37:28.083Z,16.88
2023-04-19T00:39:54.846Z,17.13
2023-04-19T00:42:21.569Z,17.92
2023-04-19T00:44:48.360Z,15.00
2023-04-19T00:47:17.475Z,16.98
2023-04-19T00:49:44.554Z,13.77
2023-04-19T00:52:11.368Z,17.35
2023-04-19T00:54:39.033Z,14.80
2023-04-19T00:57:05.862Z,15.25
2023-04-19T00:59:34.658Z,21.52
2023-04-19T01:02:02.211Z,15.35
2023-04-19T01:04:29.317Z,18.27
2023-04-19T01:06:56.414Z,17.77
2023-04-19T01:09:23.143Z,18.20
2023-04-19T01:11:50.808Z,18.50
2023-04-19T01:14:17.651Z,22.65
2023-04-19T01:16:45.606Z,20.95
2023-04-19T01:19:12.635Z,17.55
2023-04-19T01:21:40.212Z,21.23
2023-04-19T01:24:07.242Z,20.33
2023-04-19T01:26:34.126Z,20.17
2023-04-19T01:29:03.764Z,20.92
2023-04-19T01:31:30.548Z,21.05
2023-04-19T01:33:57.378Z,20.85
2023-04-19T01:36:24.172Z,21.67
2023-04-19T01:38:53.168Z,18.33
2023-04-19T01:41:21.987Z,21.75
2023-04-19T01:43:48.720Z,20.83
2023-04-19T01:46:17.475Z,21.90
2023-04-19T01:48:44.407Z,26.98
2023-04-19T01:51:16.193Z,22.45
2023-04-19T01:53:46.041Z,20.38
2023-04-19T01:56:15.728Z,22.67
2023-04-19T01:58:42.604Z,20.67
2023-04-19T02:01:12.655Z,24.00
2023-04-19T02:03:42.915Z,21.38
2023-04-19T02:06:13.924Z,23.27
2023-04-19T02:08:42.079Z,20.70
2023-04-19T02:11:16.413Z,24.00
2023-04-19T02:13:43.445Z,22.48
2023-04-19T02:16:10.906Z,20.17
2023-04-19T02:18:39.304Z,22.58
2023-04-19T02:21:08.413Z,21.25
2023-04-19T02:23:38.199Z,23.02
2023-04-19T02:26:05.357Z,21.85
2023-04-19T02:28:32.734Z,22.63
2023-04-19T02:31:03.267Z,20.55
2023-04-19T02:33:35.896Z,21.40
2023-04-19T02:36:04.635Z,21.17
2023-04-19T02:38:31.356Z,22.50
2023-04-19T02:41:04.293Z,23.77
2023-04-19T02:43:31.138Z,24.90
2023-04-19T02:46:00.159Z,27.13
2023-04-19T02:48:29.120Z,23.90
2023-04-19T02:50:56.206Z,23.98
2023-04-19T02:53:23.328Z,24.80
2023-04-19T02:55:50.711Z,24.88
2023-04-19T02:58:17.478Z,21.85
2023-04-19T03:00:47.389Z,24.70
2023-04-19T03:03:14.205Z,23.80
2023-04-19T03:05:42.932Z,24.50
2023-04-19T03:08:11.179Z,27.10
2023-04-19T03:10:40.751Z,25.65
2023-04-19T03:13:09.142Z,27.83
2023-04-19T03:15:35.995Z,25.77
2023-04-19T03:18:05.546Z,25.25
2023-04-19T03:20:32.329Z,31.02
2023-04-19T03:23:02.617Z,30.83
2023-04-19T03:25:31.332Z,30.92
2023-04-19T03:27:58.076Z,29.55
2023-04-19T03:30:24.883Z,26.25
2023-04-19T03:32:54.204Z,26.00
2023-04-19T03:35:22.400Z,28.90
2023-04-19T03:37:49.267Z,30.50
2023-04-19T03:40:16.138Z,26.38
2023-04-19T03:42:42.925Z,29.52
2023-04-19T03:45:12.866Z,28.13
2023-04-19T03:47:39.705Z,34.88
2023-04-19T03:50:07.024Z,28.63
2023-04-19T03:52:36.695Z,30.27
2023-04-19T03:55:08.952Z,27.77
2023-04-19T03:57:36.077Z,28.63
2023-04-19T04:00:09.256Z,30.35
2023-04-19T04:02:39.832Z,29.50
2023-04-19T04:05:07.773Z,30.60
2023-04-19T04:07:36.586Z,26.50
2023-04-19T04:10:08.797Z,29.83
2023-04-19T04:12:35.614Z,29.05
2023-04-19T04:15:02.761Z,29.60
2023-04-19T04:17:29.519Z,28.88
2023-04-19T04:19:56.351Z,30.15
2023-04-19T04:22:26.165Z,30.55
2023-04-19T04:24:53.916Z,31.73
2023-04-19T04:27:21.527Z,32.53
2023-04-19T04:29:54.571Z,29.70
2023-04-19T04:32:24.327Z,33.22
2023-04-19T04:34:51.327Z,30.65
2023-04-19T04:37:18.201Z,26.85
2023-04-19T04:39:44.967Z,29.40
2023-04-19T04:42:12.218Z,28.60
2023-04-19T04:44:39.142Z,30.65
2023-04-19T04:47:05.906Z,32.53
2023-04-19T04:49:32.768Z,30.02
2023-04-19T04:52:02.559Z,29.80
2023-04-19T04:54:33.863Z,32.72
2023-04-19T04:57:03.149Z,30.75
2023-04-19T04:59:29.920Z,31.17
2023-04-19T05:01:56.674Z,35.22
2023-04-19T05:04:23.507Z,31.60
2023-04-19T05:06:52.889Z,33.13
2023-04-19T05:09:24.757Z,31.92
2023-04-19T05:11:51.527Z,33.70
2023-04-19T05:14:20.072Z,30.80
2023-04-19T05:16:46.966Z,34.22
2023-04-19T05:19:13.837Z,29.17
2023-04-19T05:21:40.694Z,31.80
2023-04-19T05:24:09.998Z,29.65
2023-04-19T05:26:38.751Z,35.08
2023-04-19T05:29:05.491Z,29.08
2023-04-19T05:31:32.479Z,29.13
2023-04-19T05:33:59.308Z,28.83
2023-04-19T05:36:26.984Z,29.92
2023-04-19T05:38:53.764Z,29.23
2023-04-19T05:41:20.931Z,32.50
2023-04-19T05:43:47.953Z,32.70
2023-04-19T05:46:14.910Z,34.78
2023-04-19T05:48:41.726Z,35.97
2023-04-19T05:51:08.493Z,30.83
2023-04-19T05:53:35.385Z,33.20
2023-04-19T05:56:02.219Z,33.50
2023-04-19T05:58:28.978Z,34.08
2023-04-19T06:00:55.878Z,31.30
2023-04-19T06:03:22.951Z,33.47
2023-04-19T06:05:50.013Z,32.17
2023-04-19T06:08:17.546Z,31.30
2023-04-19T06:10:54.523Z,36.08
2023-04-19T06:13:25.124Z,32.70
2023-04-19T06:15:52.037Z,33.38
2023-04-19T06:18:20.229Z,30.05
2023-04-19T06:20:47.613Z,31.23
2023-04-19T06:23:15.034Z,29.15
2023-04-19T06:25:42.044Z,30.65
2023-04-19T06:28:08.886Z,31.05
2023-04-19T06:30:35.705Z,28.08
2023-04-19T06:33:02.721Z,30.85
2023-04-19T06:35:29.745Z,30.08
2023-04-19T06:37:56.484Z,30.10
2023-04-19T06:40:23.359Z,29.40
2023-04-19T06:42:50.351Z,23.98
2023-04-19T06:45:17.229Z,27.48
2023-04-19T06:47:46.767Z,29.88
2023-04-19T06:50:13.904Z,31.55
2023-04-19T06:52:40.794Z,28.33
2023-04-19T06:55:08.057Z,28.42
2023-04-19T06:57:34.982Z,26.77
2023-04-19T07:00:01.801Z,28.77
2023-04-19T07:02:28.766Z,27.58
2023-04-19T07:04:55.778Z,31.38
2023-04-19T07:07:22.578Z,29.55
2023-04-19T07:09:49.331Z,27.67
2023-04-19T07:12:16.167Z,28.45
2023-04-19T07:14:42.998Z,28.10
2023-04-19T07:17:09.792Z,32.05
2023-04-19T07:19:36.644Z,31.25
2023-04-19T07:22:03.546Z,26.75
2023-04-19T07:24:30.475Z,29.33
2023-04-19T07:26:57.613Z,30.83
2023-04-19T07:29:24.421Z,28.58
2023-04-19T07:31:51.344Z,29.90
2023-04-19T07:34:18.460Z,27.48
2023-04-19T07:36:45.401Z,27.88
2023-04-19T07:39:13.280Z,31.65
2023-04-19T07:41:40.067Z,25.23
2023-04-19T07:44:06.923Z,26.10
2023-04-19T07:46:33.871Z,27.25
2023-04-19T07:49:00.694Z,32.20
2023-04-19T07:51:27.629Z,28.42
2023-04-19T07:53:54.513Z,30.15
2023-04-19T07:56:24.252Z,29.92
2023-04-19T07:59:04.214Z,26.70
2023-04-19T08:01:34.104Z,28.05
2023-04-19T08:04:01.535Z,29.50
2023-04-19T08:06:30.439Z,29.35
2023-04-19T08:08:57.320Z,27.83
2023-04-19T08:11:25.117Z,22.02
2023-04-19T08:14:04.729Z,25.35
2023-04-19T08:19:08.297Z,24.83
2023-04-19T08:21:41.343Z,26.77
2023-04-19T08:24:08.919Z,27.17
2023-04-19T08:26:35.817Z,23.05
2023-04-19T08:29:02.733Z,24.25
2023-04-19T08:31:29.752Z,23.17
2023-04-19T08:33:57.285Z,21.92
2023-04-19T08:36:36.946Z,22.80
2023-04-19T08:39:29.399Z,21.55
2023-04-19T08:42:02.732Z,22.17
2023-04-19T08:44:36.675Z,22.65
2023-04-19T08:47:04.501Z,24.45
2023-04-19T08:49:35.180Z,27.67
2023-04-19T08:52:02.223Z,22.27
2023-04-19T08:54:30.352Z,23.70
2023-04-19T08:57:00.061Z,22.48
2023-04-19T08:59:26.998Z,25.23
2023-04-19T09:01:55.885Z,26.02
2023-04-19T09:04:36.485Z,25.08
2023-04-19T09:07:04.648Z,26.20
2023-04-19T09:09:37.066Z,25.92
2023-04-19T09:12:18.027Z,25.63
2023-04-19T09:15:01.160Z,22.73
2023-04-19T09:17:28.562Z,22.63
2023-04-19T09:19:55.535Z,21.70
2023-04-19T09:22:22.419Z,21.73
2023-04-19T09:27:30.948Z,25.63
2023-04-19T09:30:00.068Z,19.27
2023-04-19T09:32:27.666Z,21.70
2023-04-19T09:34:59.523Z,20.10
2023-04-19T09:39:57.037Z,20.52
2023-04-19T09:42:47.392Z,19.70
2023-04-19T09:47:41.046Z,20.55
2023-04-19T09:50:22.494Z,22.90
2023-04-19T09:52:52.916Z,19.70
2023-04-19T09:57:49.993Z,20.17
2023-04-19T10:00:16.990Z,19.58
2023-04-19T10:02:48.208Z,23.33
2023-04-19T10:05:21.157Z,22.77
2023-04-19T10:07:50.337Z,19.15
2023-04-19T10:10:20.838Z,20.10
2023-04-19T10:15:24.152Z,20.70
2023-04-19T10:17:51.439Z,19.98
2023-04-19T10:20:25.399Z,16.05
2023-04-19T10:22:52.670Z,15.88
2023-04-19T10:25:27.792Z,17.52
2023-04-19T10:27:54.655Z,14.63
2023-04-19T10:30:23.000Z,18.27
2023-04-19T10:33:08.076Z,18.02
2023-04-19T10:35:40.288Z,15.75
2023-04-19T10:38:16.359Z,15.50
2023-04-19T10:40:52.945Z,18.15
2023-04-19T10:43:20.800Z,14.63
2023-04-19T10:45:48.459Z,14.20
2023-04-19T10:48:30.584Z,13.95
2023-04-19T10:51:05.009Z,15.05
2023-04-19T10:53:51.332Z,18.15
2023-04-19T10:56:21.518Z,12.98
2023-04-19T10:59:07.786Z,14.00
2023-04-19T11:01:37.403Z,17.00
2023-04-19T11:04:05.088Z,16.40
2023-04-19T11:06:36.013Z,14.70
2023-04-19T11:09:05.681Z,11.50
2023-04-19T11:11:36.103Z,16.17
2023-04-19T11:14:04.429Z,14.05
2023-04-19T11:16:45.210Z,14.27
2023-04-19T11:19:22.163Z,15.07
2023-04-19T11:21:49.506Z,17.15
2023-04-19T11:24:18.934Z,17.92
2023-04-19T11:26:46.199Z,18.00
2023-04-19T11:29:13.165Z,18.70
2023-04-19T11:31:40.076Z,18.73
2023-04-19T11:34:10.547Z,21.65
2023-04-19T11:36:48.439Z,20.80
2023-04-19T11:39:15.426Z,21.55
2023-04-19T11:41:44.657Z,19.50
2023-04-19T11:44:22.041Z,21.40
2023-04-19T11:47:03.290Z,21.90
2023-04-19T11:49:32.065Z,26.73
2023-04-19T11:52:06.219Z,26.35
2023-04-19T11:54:33.880Z,22.63
2023-04-19T11:57:10.411Z,26.50
2023-04-19T12:02:12.846Z,22.13
2023-04-19T12:04:40.977Z,24.08
2023-04-19T12:07:10.284Z,25.40
2023-04-19T12:09:44.205Z,24.05
2023-04-19T12:12:10.919Z,25.05
2023-04-19T12:14:40.366Z,24.23
2023-04-19T12:17:13.415Z,24.15
2023-04-19T12:19:46.298Z,25.77
2023-04-19T12:22:22.769Z,23.42
2023-04-19T12:24:53.343Z,24.60
2023-04-19T12:27:20.182Z,25.05
2023-04-19T12:29:49.314Z,23.17
2023-04-19T12:32:19.102Z,25.70
2023-04-19T12:34:48.643Z,23.33
2023-04-19T12:37:18.198Z,23.60
2023-04-19T12:39:44.977Z,27.67
2023-04-19T12:42:11.984Z,23.80
2023-04-19T12:44:41.588Z,24.80
2023-04-19T12:47:08.347Z,25.98
2023-04-19T12:49:35.123Z,26.13
2023-04-19T12:52:01.862Z,27.45
2023-04-19T12:54:31.375Z,32.17
2023-04-19T12:56:58.145Z,30.23
2023-04-19T12:59:24.931Z,18.60
2023-04-19T13:01:52.130Z,14.07
2023-04-19T13:04:21.946Z,14.80
2023-04-19T13:06:48.984Z,14.30
2023-04-19T13:09:15.769Z,11.30
2023-04-19T13:11:42.751Z,13.00
2023-04-19T13:14:09.669Z,12.52
2023-04-19T13:16:36.593Z,13.90
2023-04-19T13:19:03.488Z,12.38
2023-04-19T13:21:30.575Z,16.48
2023-04-19T13:24:00.468Z,13.30
2023-04-19T13:26:27.673Z,12.55
2023-04-19T13:28:57.727Z,12.90
2023-04-19T13:31:25.102Z,13.63
2023-04-19T13:33:52.124Z,11.77
2023-04-19T13:36:19.343Z,9.65
2023-04-19T13:38:48.898Z,11.73
2023-04-19T13:41:15.658Z,11.02
2023-04-19T13:43:42.594Z,11.05
2023-04-19T13:46:09.368Z,10.38
2023-04-19T13:48:36.856Z,9.35
2023-04-19T13:51:03.810Z,8.00
2023-04-19T13:53:30.764Z,8.88
2023-04-19T13:55:57.750Z,10.15
2023-04-19T13:58:27.687Z,9.85
2023-04-19T14:00:54.721Z,10.35
2023-04-19T14:03:23.381Z,11.27
2023-04-19T14:05:50.683Z,12.07
2023-04-19T14:08:17.460Z,13.88
2023-04-19T14:10:44.415Z,13.68
2023-04-19T14:13:11.288Z,16.52
2023-04-19T14:15:38.342Z,16.55
2023-04-19T14:18:05.347Z,20.25
2023-04-19T14:20:32.431Z,19.52
2023-04-19T14:23:00.406Z,18.25
2023-04-19T14:25:27.421Z,17.65
2023-04-19T14:27:54.156Z,17.63
2023-04-19T14:30:21.133Z,19.65
2023-04-19T14:32:48.275Z,18.67
2023-04-19T14:35:15.387Z,19.30
2023-04-19T14:37:45.332Z,20.83
2023-04-19T14:40:16.141Z,20.30
2023-04-19T14:42:42.940Z,19.35
2023-04-19T14:45:10.342Z,18.15
2023-04-19T14:47:37.308Z,23.13
2023-04-19T14:50:04.289Z,19.27
2023-04-19T14:52:31.402Z,17.98
2023-04-19T14:55:00.165Z,13.88
2023-04-19T14:57:29.908Z,13.88
2023-04-19T14:59:58.186Z,17.05
2023-04-19T15:02:25.856Z,17.98
2023-04-19T15:04:53.952Z,13.95
2023-04-19T15:07:21.517Z,15.30
2023-04-19T15:09:54.269Z,14.35
2023-04-19T15:12:21.094Z,11.25
2023-04-19T15:14:47.963Z,12.23
2023-04-19T15:17:14.902Z,14.27
2023-04-19T15:19:41.913Z,12.05
2023-04-19T15:22:08.869Z,14.43
2023-04-19T15:24:35.942Z,13.98
2023-04-19T15:27:03.018Z,12.20
2023-04-19T15:29:30.217Z,11.15
2023-04-19T15:31:57.293Z,11.25
2023-04-19T15:34:25.439Z,10.52
2023-04-19T15:36:52.205Z,10.25
2023-04-19T15:39:19.102Z,9.00
2023-04-19T15:41:46.090Z,9.85
2023-04-19T15:44:13.404Z,10.70
2023-04-19T15:46:40.408Z,9.35
2023-04-19T15:49:07.405Z,10.55
2023-04-19T15:51:34.302Z,10.55
2023-04-19T15:54:01.250Z,9.50
2023-04-19T15:56:28.243Z,10.05
2023-04-19T15:58:55.020Z,8.73
2023-04-19T16:01:23.289Z,9.15
2023-04-19T16:03:50.406Z,10.23
2023-04-19T16:06:17.710Z,9.63
2023-04-19T16:08:44.500Z,11.23
2023-04-19T16:11:11.348Z,11.60
2023-04-19T16:13:38.228Z,8.20
2023-04-19T16:16:05.489Z,9.90
2023-04-19T16:18:32.377Z,8.45
2023-04-19T16:20:59.338Z,8.48
2023-04-19T16:23:26.472Z,9.95
2023-04-19T16:25:54.864Z,10.32
2023-04-19T16:28:23.529Z,10.68
2023-04-19T16:30:50.920Z,9.05
2023-04-19T16:33:17.845Z,9.23
2023-04-19T16:35:45.501Z,8.55
2023-04-19T16:38:12.408Z,12.75
2023-04-19T16:40:39.213Z,12.00
2023-04-19T16:43:06.571Z,14.68
2023-04-19T16:45:33.581Z,12.00
2023-04-19T16:48:00.627Z,14.70
2023-04-19T16:50:27.651Z,16.55
2023-04-19T16:52:54.561Z,14.32
2023-04-19T16:55:21.716Z,17.40
2023-04-19T16:57:48.568Z,12.27
2023-04-19T17:00:16.014Z,10.50
2023-04-19T17:02:43.145Z,10.40
2023-04-19T17:05:10.235Z,12.88
2023-04-19T17:07:37.232Z,12.07
2023-04-19T17:10:07.117Z,10.95
2023-04-19T17:12:34.224Z,9.18
2023-04-19T17:15:01.599Z,9.77
2023-04-19T17:17:28.419Z,11.48
2023-04-19T17:19:56.898Z,10.93
2023-04-19T17:22:24.011Z,8.13
2023-04-19T17:24:50.899Z,10.10
2023-04-19T17:27:17.695Z,8.95
2023-04-19T17:29:44.696Z,11.63
2023-04-19T17:32:11.539Z,9.00
2023-04-19T17:34:38.438Z,10.18
2023-04-19T17:37:05.356Z,7.93
2023-04-19T17:39:32.424Z,11.20
2023-04-19T17:41:59.242Z,10.32
2023-04-19T17:44:26.227Z,13.65
2023-04-19T17:46:53.096Z,10.00
2023-04-19T17:49:20.245Z,9.82
2023-04-19T17:51:47.687Z,9.93
2023-04-19T17:54:15.088Z,11.23
2023-04-19T17:56:42.068Z,12.70
2023-04-19T17:59:08.961Z,11.40
2023-04-19T18:01:36.050Z,15.82
2023-04-19T18:04:04.429Z,11.38
2023-04-19T18:06:31.864Z,10.20
2023-04-19T18:08:58.988Z,11.27
2023-04-19T18:11:28.351Z,11.63
2023-04-19T18:13:55.904Z,12.57
2023-04-19T18:16:22.815Z,14.23
2023-04-19T18:18:49.597Z,11.82
2023-04-19T18:21:18.402Z,16.52
2023-04-19T18:23:45.314Z,12.68
2023-04-19T18:26:12.113Z,10.65
2023-04-19T18:28:39.999Z,12.02
2023-04-19T18:31:09.899Z,9.70
2023-04-19T18:33:36.676Z,11.70
2023-04-19T18:36:04.130Z,13.05
2023-04-19T18:38:31.291Z,14.70
2023-04-19T18:40:59.610Z,17.33
2023-04-19T18:43:30.471Z,12.65
2023-04-19T18:45:57.763Z,12.38
2023-04-19T18:48:29.396Z,13.52
2023-04-19T18:50:57.275Z,11.75
2023-04-19T18:53:27.813Z,12.15
2023-04-19T18:55:58.483Z,14.18
2023-04-19T18:58:29.473Z,10.20
2023-04-19T19:00:56.914Z,9.88
2023-04-19T19:05:54.766Z,13.18
2023-04-19T19:08:21.985Z,12.27
2023-04-19T19:11:13.781Z,13.38
2023-04-19T19:13:35.805Z,12.20
2023-04-19T19:16:02.694Z,11.43
2023-04-19T19:18:29.719Z,12.85
2023-04-19T19:21:03.203Z,14.75
2023-04-19T19:23:35.740Z,13.98
2023-04-19T19:26:06.813Z,15.93
2023-04-19T19:28:34.405Z,13.20
2023-04-19T19:31:01.406Z,13.00
2023-04-19T19:33:28.902Z,16.13
2023-04-19T19:35:55.786Z,14.30
2023-04-19T19:38:22.616Z,14.13
2023-04-19T19:43:19.000Z,14.38
2023-04-19T19:45:45.952Z,15.25
2023-04-19T19:48:12.755Z,12.55
2023-04-19T19:51:07.462Z,13.38
2023-04-19T19:53:26.312Z,11.13
2023-04-19T19:55:53.202Z,15.93
2023-04-19T19:58:42.598Z,12.90
2023-04-19T20:01:07.415Z,13.82
2023-04-19T20:03:37.578Z,14.43
2023-04-19T20:08:39.622Z,12.43
2023-04-19T20:11:09.503Z,12.52
2023-04-19T20:13:36.665Z,11.73
2023-04-19T20:16:03.492Z,11.25
2023-04-19T20:18:30.472Z,15.20
2023-04-19T20:20:57.879Z,12.82
2023-04-19T20:23:24.924Z,11.70
2023-04-19T20:25:52.105Z,15.98
2023-04-19T20:28:18.964Z,10.15
2023-04-19T20:30:45.886Z,10.93
2023-04-19T20:33:12.716Z,11.98
2023-04-19T20:35:39.449Z,10.98
2023-04-19T20:38:07.761Z,11.02
2023-04-19T20:40:34.509Z,12.40
2023-04-19T20:43:01.475Z,10.52
2023-04-19T20:45:28.450Z,9.38
2023-04-19T20:47:55.711Z,13.82
2023-04-19T20:50:22.955Z,11.63
2023-04-19T20:52:49.748Z,14.43
2023-04-19T20:55:16.527Z,11.38
2023-04-19T20:57:43.412Z,12.68
2023-04-19T21:00:11.140Z,11.30
2023-04-19T21:02:38.499Z,12.82
2023-04-19T21:05:05.929Z,13.40
2023-04-19T21:07:33.593Z,12.48
2023-04-19T21:10:00.506Z,12.30
2023-04-19T21:12:27.286Z,14.05
2023-04-19T21:14:54.100Z,15.20
2023-04-19T21:17:21.201Z,13.30
2023-04-19T21:19:48.057Z,13.45
2023-04-19T21:22:15.095Z,10.52
2023-04-19T21:24:41.866Z,12.27
2023-04-19T21:27:08.622Z,12.45
2023-04-19T21:29:35.474Z,15.35
2023-04-19T21:32:02.235Z,11.13
2023-04-19T21:34:29.042Z,14.18
2023-04-19T21:36:55.986Z,10.75
2023-04-19T21:39:22.765Z,12.10
2023-04-19T21:41:49.576Z,12.70
2023-04-19T21:44:16.333Z,13.20
2023-04-19T21:46:43.245Z,13.70
2023-04-19T21:49:10.081Z,10.88
2023-04-19T21:51:36.879Z,12.02
2023-04-19T21:54:03.704Z,11.05
2023-04-19T21:56:30.458Z,10.65
2023-04-19T21:58:57.293Z,10.57
2023-04-19T22:01:24.142Z,16.10
2023-04-19T22:03:51.104Z,10.70
2023-04-19T22:06:19.272Z,13.30
2023-04-19T22:08:47.997Z,10.50
2023-04-19T22:11:17.957Z,12.30
2023-04-19T22:13:44.745Z,12.98
2023-04-19T22:16:11.718Z,14.35
2023-04-19T22:18:41.274Z,12.75
2023-04-19T22:21:09.871Z,20.85
2023-04-19T22:23:37.543Z,15.10
2023-04-19T22:26:04.807Z,20.63
2023-04-19T22:28:33.770Z,15.02
2023-04-19T22:31:00.578Z,15.95
2023-04-19T22:33:29.838Z,16.02
2023-04-19T22:35:56.633Z,17.80
2023-04-19T22:38:23.417Z,21.17
2023-04-19T22:40:50.380Z,17.42
2023-04-19T22:43:17.152Z,18.52
2023-04-19T22:45:51.437Z,24.98
2023-04-19T22:48:21.804Z,21.15
2023-04-19T22:50:48.537Z,20.45
2023-04-19T22:53:15.340Z,19.98
2023-04-19T22:55:42.909Z,17.02
2023-04-19T22:58:10.608Z,15.30
2023-04-19T23:00:37.975Z,16.77
2023-04-19T23:03:04.792Z,16.90
2023-04-19T23:05:32.030Z,18.90
2023-04-19T23:07:59.243Z,18.23
2023-04-19T23:10:29.589Z,21.13
2023-04-19T23:12:57.289Z,16.73
2023-04-19T23:15:24.779Z,16.60
2023-04-19T23:17:52.728Z,18.63
2023-04-19T23:20:19.604Z,14.25
2023-04-19T23:22:46.307Z,15.15
2023-04-19T23:25:13.104Z,16.00
2023-04-19T23:27:39.925Z,15.98
2023-04-19T23:30:07.849Z,16.13
2023-04-19T23:32:34.844Z,16.55
2023-04-19T23:35:01.625Z,15.75
2023-04-19T23:37:28.356Z,20.73
2023-04-19T23:39:55.218Z,21.25
2023-04-19T23:42:21.941Z,23.20
2023-04-19T23:44:48.722Z,21.15
2023-04-19T23:47:15.578Z,20.52
2023-04-19T23:49:44.924Z,20.23
2023-04-19T23:52:11.733Z,19.60
2023-04-19T23:54:38.562Z,21.20
2023-04-19T23:57:05.557Z,21.20
2023-04-19T23:59:33.222Z,22.67
